Hauptseite
METAR-TAF:

METAR-TAF

Flughäfen :

Valley, Wales

Breite: 53-15N, Länge: 004-32W, Höhe: 1 m

Beobachtung

Neuester Wetterbericht von vor 1 Stunde und 19 Minuten, um 22:50 UTC
Wind 21 kt aus Süd
Temperatur 12°C
Luftfeuchtigkeit 82%
Luftdruck 1003 hPa
Sichtweite 10 km oder mehr

METAR: EGOV 232250Z AUTO 18021KT 9999 BKN020/// SCT050/// 12/09 Q1003

Zeit: 01:09 (00:09 UTC)

Prognose

Neuester Wetterbericht von vor 10 Stunden und 31 Minuten, um 13:38 UTC
Gültige Prognose vom 23 um 15 UTC bis 23 um 19 UTC
Wind 20 kt aus Süd
Sichtweite 10 km oder mehr
Leicht bewölkt in der Höhe von 1800 ft
Aufgelockert bewölkt in der Höhe von 4000 ft
Wahrscheinlichkeit 30% :
Zeitweise
vom 23 um 15 UTC bis 23 um 19 UTC
Wind 20 kt aus Süd, Böen bis zu 30 kt
Aufgelockert bewölkt in der Höhe von 1800 ft

TAF: EGOV 231338Z 2315/2319 18020KT 9999 FEW018 SCT040 PROB30 TEMPO 2315/2319 19020G30KT SCT018

Wetterbeobachtungen und Prognosen von mehr als 4000 Flughäfen (METAR und TAF Bericht).

Die verfügbaren Stationen werden durch gelbe und rote Markierungen auf der Karte dargestellt.

Führen Sie die Maus auf sie, um den Namen der Station zu sehen.

Darauf klicken, um die Beobachtung von Wetterbeobachtungen und Prognosen zu sehen.

Um die Karte zu ändern : klicken Sie auf den grünen Tasten mit einem schwarzen Kreuz Zum Vergrößern, auf den grünen Button mit einem Gedankenstrich zu verkleinern, oder auf die grünen Pfeile für benachbarte Karten.


METAR-TAF: